createdAt,value
2016-10-06T00:01:07.000Z,997.04
2016-10-06T00:02:16.980Z,997.05
2016-10-06T00:03:26.662Z,996.97
2016-10-06T00:04:36.946Z,997
2016-10-06T00:05:46.623Z,996.99
2016-10-06T00:06:56.593Z,996.96
2016-10-06T00:08:06.584Z,997
2016-10-06T00:09:16.861Z,997.02
2016-10-06T00:10:27.142Z,997
2016-10-06T00:11:37.414Z,996.97
2016-10-06T00:12:47.386Z,996.95
2016-10-06T00:13:57.378Z,997
2016-10-06T00:15:07.684Z,996.94
2016-10-06T00:16:17.977Z,996.92
2016-10-06T00:17:28.259Z,996.96
2016-10-06T00:18:38.527Z,997
2016-10-06T00:19:48.197Z,997.03
2016-10-06T00:20:57.541Z,996.98
2016-10-06T00:22:07.220Z,996.96
2016-10-06T00:23:17.191Z,996.96
2016-10-06T00:24:26.863Z,996.99
2016-10-06T00:25:36.821Z,996.98
2016-10-06T00:26:46.794Z,997.01
2016-10-06T00:27:56.773Z,997.06
2016-10-06T00:29:07.060Z,996.92
2016-10-06T00:30:17.326Z,996.94
2016-10-06T00:31:27.843Z,996.98
2016-10-06T00:32:38.130Z,996.93
2016-10-06T00:33:48.413Z,996.99
2016-10-06T00:34:58.698Z,997.04
2016-10-06T00:36:08.665Z,996.92
2016-10-06T00:37:18.637Z,996.88
2016-10-06T00:38:28.616Z,996.83
2016-10-06T00:39:38.606Z,996.88
2016-10-06T00:40:48.903Z,996.89
2016-10-06T00:41:59.190Z,996.87
2016-10-06T00:43:08.873Z,996.89
2016-10-06T00:44:19.145Z,996.86
2016-10-06T00:45:28.812Z,996.88
2016-10-06T00:46:39.097Z,996.86
2016-10-06T00:47:49.405Z,996.86
2016-10-06T00:48:59.088Z,996.89
2016-10-06T00:50:09.379Z,996.82
2016-10-06T00:51:19.385Z,996.77
2016-10-06T00:52:29.681Z,996.78
2016-10-06T00:53:39.673Z,996.78
2016-10-06T00:54:49.344Z,996.7
2016-10-06T00:55:58.716Z,996.75
2016-10-06T00:57:08.994Z,996.69
2016-10-06T00:58:18.965Z,996.69
2016-10-06T00:59:29.256Z,996.67
2016-10-06T01:00:39.544Z,996.73
2016-10-06T01:01:49.535Z,996.64
2016-10-06T01:02:59.199Z,996.63
2016-10-06T01:04:09.178Z,996.6
2016-10-06T01:05:19.477Z,996.58
2016-10-06T01:06:29.452Z,996.57
2016-10-06T01:07:39.126Z,996.54
2016-10-06T01:08:49.628Z,996.47
2016-10-06T01:09:59.915Z,996.62
2016-10-06T01:11:09.905Z,996.51
2016-10-06T01:12:19.277Z,996.5
2016-10-06T01:13:29.564Z,996.44
2016-10-06T01:14:39.557Z,996.34
2016-10-06T01:15:49.533Z,996.49
2016-10-06T01:16:59.816Z,996.39
2016-10-06T01:18:09.472Z,996.37
2016-10-06T01:19:19.753Z,996.33
2016-10-06T01:20:29.414Z,996.34
2016-10-06T01:21:39.697Z,996.38
2016-10-06T01:22:49.983Z,996.39
2016-10-06T01:23:59.965Z,996.37
2016-10-06T01:25:09.926Z,996.31
2016-10-06T01:26:19.896Z,996.29
2016-10-06T01:27:30.173Z,996.24
2016-10-06T01:28:40.455Z,996.24
2016-10-06T01:29:50.430Z,996.21
2016-10-06T01:31:00.407Z,996.26
2016-10-06T01:32:10.403Z,996.22
2016-10-06T01:33:20.710Z,996.31
2016-10-06T01:34:30.994Z,996.21
2016-10-06T01:35:40.662Z,996.27
2016-10-06T01:36:50.635Z,996.19
2016-10-06T01:38:00.919Z,996.17
2016-10-06T01:39:10.896Z,996.19
2016-10-06T01:40:20.874Z,996.17
2016-10-06T01:41:31.165Z,996.14
2016-10-06T01:42:41.443Z,996.2
2016-10-06T01:43:51.428Z,996.21
2016-10-06T01:45:01.714Z,996.04
2016-10-06T01:46:11.687Z,995.98
2016-10-06T01:47:21.970Z,996.06
2016-10-06T01:48:31.947Z,996.2
2016-10-06T01:49:41.910Z,996
2016-10-06T01:50:52.194Z,996.05
2016-10-06T01:52:02.172Z,996.04
2016-10-06T01:53:12.142Z,996.02
2016-10-06T01:54:22.114Z,996.05
2016-10-06T01:55:31.780Z,996.05
2016-10-06T01:56:42.062Z,995.98
2016-10-06T01:57:51.726Z,995.96
2016-10-06T01:59:01.398Z,995.99
2016-10-06T02:00:11.689Z,995.98
2016-10-06T02:01:21.662Z,995.97
2016-10-06T02:02:31.940Z,995.98
2016-10-06T02:03:41.915Z,995.94
2016-10-06T02:04:52.200Z,995.95
2016-10-06T02:06:02.501Z,996.01
2016-10-06T02:07:12.773Z,996
2016-10-06T02:08:22.742Z,995.97
2016-10-06T02:09:32.708Z,996
2016-10-06T02:10:42.368Z,995.97
2016-10-06T02:11:52.673Z,995.97
2016-10-06T02:13:02.347Z,995.93
2016-10-06T02:14:12.319Z,995.9
2016-10-06T02:15:22.306Z,995.89
2016-10-06T02:16:32.278Z,995.91
2016-10-06T02:17:42.573Z,995.91
2016-10-06T02:18:52.561Z,995.92
2016-10-06T02:20:02.848Z,995.86
2016-10-06T02:21:13.138Z,995.88
2016-10-06T02:22:22.816Z,995.91
2016-10-06T02:23:32.789Z,995.91
2016-10-06T02:24:42.792Z,995.89
2016-10-06T02:25:52.766Z,995.9
2016-10-06T02:27:02.748Z,995.89
2016-10-06T02:28:13.031Z,995.83
2016-10-06T02:29:22.996Z,995.84
2016-10-06T02:30:33.284Z,995.85
2016-10-06T02:31:43.255Z,995.79
2016-10-06T02:32:53.557Z,995.86
2016-10-06T02:34:03.232Z,995.83
2016-10-06T02:35:13.511Z,995.83
2016-10-06T02:36:23.773Z,995.86
2016-10-06T02:37:33.766Z,995.8
2016-10-06T02:38:44.039Z,995.75
2016-10-06T02:39:54.318Z,995.76
2016-10-06T02:41:03.673Z,995.75
2016-10-06T02:42:13.979Z,995.8
2016-10-06T02:43:24.293Z,995.75
2016-10-06T02:44:34.399Z,995.78
2016-10-06T02:45:44.677Z,995.73
2016-10-06T02:46:54.957Z,995.74
2016-10-06T02:48:04.929Z,995.7
2016-10-06T02:49:14.894Z,995.65
2016-10-06T02:50:25.171Z,995.66
2016-10-06T02:51:35.134Z,995.7
2016-10-06T02:52:45.090Z,995.65
2016-10-06T02:53:55.071Z,995.61
2016-10-06T02:55:05.345Z,995.65
2016-10-06T02:56:15.622Z,995.64
2016-10-06T02:57:25.936Z,995.63
2016-10-06T02:58:36.229Z,995.68
2016-10-06T02:59:46.210Z,995.64
2016-10-06T03:00:56.180Z,995.63
2016-10-06T03:32:23.024Z,995.54
2016-10-06T03:33:33.295Z,995.66
2016-10-06T03:34:43.250Z,995.6
2016-10-06T03:35:53.531Z,995.57
2016-10-06T03:37:03.199Z,995.57
2016-10-06T03:38:13.172Z,995.78
2016-10-06T03:39:23.461Z,995.64
2016-10-06T03:40:33.136Z,995.68
2016-10-06T03:41:43.435Z,995.6
2016-10-06T03:42:53.423Z,995.56
2016-10-06T03:44:03.719Z,995.6
2016-10-06T03:45:14.016Z,995.55
2016-10-06T03:46:24.027Z,995.54
2016-10-06T03:47:34.330Z,995.55
2016-10-06T03:48:44.627Z,995.51
2016-10-06T03:49:54.902Z,995.53
2016-10-06T03:51:04.894Z,995.47
2016-10-06T03:52:15.166Z,995.52
2016-10-06T03:53:25.467Z,995.54
2016-10-06T03:54:35.451Z,995.54
2016-10-06T03:55:45.423Z,995.53
2016-10-06T03:56:55.392Z,995.55
2016-10-06T03:58:05.674Z,995.55
2016-10-06T03:59:15.643Z,995.54
2016-10-06T04:00:25.657Z,995.51
2016-10-06T04:01:35.329Z,995.61
2016-10-06T04:02:45.602Z,995.6
2016-10-06T04:03:55.879Z,995.57
2016-10-06T04:05:05.569Z,995.64
2016-10-06T04:06:15.859Z,995.55
2016-10-06T04:07:25.848Z,995.54
2016-10-06T04:08:35.816Z,995.56
2016-10-06T04:09:45.776Z,995.54
2016-10-06T04:10:55.444Z,995.55
2016-10-06T04:12:05.444Z,995.5
2016-10-06T04:13:15.731Z,995.47
2016-10-06T04:14:25.702Z,995.47
2016-10-06T04:15:35.057Z,995.5
2016-10-06T04:16:45.357Z,995.44
2016-10-06T04:17:55.642Z,995.5
2016-10-06T04:19:05.619Z,995.52
2016-10-06T04:20:15.606Z,995.51
2016-10-06T04:21:25.884Z,995.48
2016-10-06T04:22:36.195Z,995.47
2016-10-06T04:23:46.470Z,995.55
2016-10-06T04:24:56.764Z,995.56
2016-10-06T04:26:07.057Z,995.52
2016-10-06T04:27:17.032Z,995.53
2016-10-06T04:28:27.343Z,995.54
2016-10-06T04:29:37.320Z,995.58
2016-10-06T04:30:47.305Z,995.58
2016-10-06T04:31:57.283Z,995.65
2016-10-06T04:33:06.941Z,995.58
2016-10-06T04:34:17.241Z,995.6
2016-10-06T04:35:27.218Z,995.57
2016-10-06T04:36:37.190Z,995.58
2016-10-06T04:37:47.481Z,995.53
2016-10-06T04:38:57.782Z,995.54
2016-10-06T04:40:07.459Z,995.54
2016-10-06T04:41:17.440Z,995.49
2016-10-06T04:42:27.113Z,995.56
2016-10-06T04:43:37.085Z,995.53
2016-10-06T04:44:47.371Z,995.52
2016-10-06T04:45:57.346Z,995.57
2016-10-06T04:47:07.641Z,995.56
2016-10-06T04:48:17.621Z,995.57
2016-10-06T04:49:27.898Z,995.55
2016-10-06T04:50:37.869Z,995.56
2016-10-06T04:51:48.156Z,995.61
2016-10-06T04:52:57.845Z,995.61
2016-10-06T04:54:07.810Z,995.58
2016-10-06T04:55:18.086Z,995.56
2016-10-06T04:56:27.748Z,995.6
2016-10-06T04:57:38.033Z,995.56
2016-10-06T04:58:48.315Z,995.57
2016-10-06T04:59:58.607Z,995.55
2016-10-06T05:01:08.285Z,995.62
2016-10-06T05:02:18.575Z,995.58
2016-10-06T05:03:28.863Z,995.56
2016-10-06T05:04:39.144Z,995.55
2016-10-06T05:05:49.116Z,995.53
2016-10-06T05:06:59.402Z,995.57
2016-10-06T05:08:09.367Z,995.6
2016-10-06T05:09:19.677Z,995.57
2016-10-06T05:10:29.661Z,995.64
2016-10-06T05:11:39.961Z,995.63
2016-10-06T05:12:50.249Z,995.61
2016-10-06T05:14:00.527Z,995.64
2016-10-06T05:15:10.539Z,995.65
2016-10-06T05:16:20.825Z,995.61
2016-10-06T05:17:30.808Z,995.69
2016-10-06T05:18:40.788Z,995.58
2016-10-06T05:19:50.761Z,995.64
2016-10-06T05:21:00.731Z,995.56
2016-10-06T05:22:10.394Z,995.55
2016-10-06T05:23:20.366Z,995.55
2016-10-06T05:24:30.647Z,995.53
2016-10-06T05:25:40.934Z,995.5
2016-10-06T05:26:50.922Z,995.54
2016-10-06T05:28:00.892Z,995.54
2016-10-06T05:29:11.185Z,995.5
2016-10-06T05:30:20.225Z,995.51
2016-10-06T05:31:30.192Z,995.5
2016-10-06T05:32:39.860Z,995.5
2016-10-06T05:33:50.145Z,995.51
2016-10-06T05:35:00.447Z,995.58
2016-10-06T05:36:10.741Z,995.5
2016-10-06T05:37:20.714Z,995.5
2016-10-06T05:38:31.007Z,995.49
2016-10-06T05:39:41.319Z,995.51
2016-10-06T05:40:51.300Z,995.49
2016-10-06T05:42:01.588Z,995.5
2016-10-06T05:43:11.889Z,995.5
2016-10-06T05:44:22.187Z,995.5
2016-10-06T05:45:32.469Z,995.51
2016-10-06T05:46:42.744Z,995.49
2016-10-06T05:47:52.426Z,995.5
2016-10-06T05:49:02.718Z,995.5
2016-10-06T05:50:12.709Z,995.49
2016-10-06T05:51:22.365Z,995.49
2016-10-06T05:52:32.343Z,995.45
2016-10-06T05:53:42.320Z,995.45
2016-10-06T05:54:52.309Z,995.46
2016-10-06T05:56:02.603Z,995.36
2016-10-06T05:57:12.595Z,995.37
2016-10-06T05:58:22.570Z,995.39
2016-10-06T05:59:32.574Z,995.34
2016-10-06T06:00:42.560Z,995.46
2016-10-06T06:01:52.839Z,995.36
2016-10-06T06:03:02.830Z,995.36
2016-10-06T06:04:13.109Z,995.37
2016-10-06T06:05:23.380Z,995.4
2016-10-06T06:06:33.672Z,995.41
2016-10-06T06:07:43.640Z,995.43
2016-10-06T06:08:53.927Z,995.42
2016-10-06T06:10:03.904Z,995.45
2016-10-06T06:11:13.259Z,995.45
2016-10-06T06:12:23.534Z,995.39
2016-10-06T06:13:33.827Z,995.43
2016-10-06T06:14:43.810Z,995.46
2016-10-06T06:15:54.084Z,995.49
2016-10-06T06:17:03.449Z,995.45
2016-10-06T06:18:13.740Z,995.52
2016-10-06T06:19:24.016Z,995.51
2016-10-06T06:20:34.006Z,995.56
2016-10-06T06:21:44.291Z,995.53
2016-10-06T06:22:54.565Z,995.54
2016-10-06T06:24:04.543Z,995.51
2016-10-06T06:25:14.841Z,995.54
2016-10-06T06:26:25.136Z,995.53
2016-10-06T06:27:35.115Z,995.53
2016-10-06T06:28:45.082Z,995.47
2016-10-06T06:29:55.066Z,995.49
2016-10-06T06:31:05.348Z,995.48
2016-10-06T06:32:15.635Z,995.45
2016-10-06T06:33:25.931Z,995.5
2016-10-06T06:34:35.939Z,995.49
2016-10-06T06:35:46.214Z,995.48
2016-10-06T06:36:56.219Z,995.46
2016-10-06T06:38:06.194Z,995.44
2016-10-06T06:39:16.481Z,995.49
2016-10-06T06:40:26.766Z,995.48
2016-10-06T06:41:37.058Z,995.43
2016-10-06T06:42:47.025Z,995.43
2016-10-06T06:43:57.313Z,995.41
2016-10-06T06:45:07.594Z,995.44
2016-10-06T06:46:17.260Z,995.48
2016-10-06T06:47:27.557Z,995.5
2016-10-06T06:48:37.845Z,995.56
2016-10-06T06:49:47.245Z,995.56
2016-10-06T06:50:56.912Z,995.55
2016-10-06T06:52:07.194Z,995.6
2016-10-06T06:53:17.176Z,995.51
2016-10-06T06:54:27.542Z,995.55
2016-10-06T06:55:37.819Z,995.62
2016-10-06T06:56:47.822Z,995.55
2016-10-06T06:57:58.113Z,995.52
2016-10-06T06:59:08.411Z,995.51
2016-10-06T07:00:18.697Z,995.51
2016-10-06T07:01:28.684Z,995.49
2016-10-06T07:02:38.665Z,995.6
2016-10-06T07:03:48.646Z,995.51
2016-10-06T07:04:58.309Z,995.58
2016-10-06T07:06:08.296Z,995.58
2016-10-06T07:07:18.577Z,995.55
2016-10-06T07:08:28.879Z,995.58
2016-10-06T07:09:38.870Z,995.64
2016-10-06T07:10:49.165Z,995.67
2016-10-06T07:11:59.459Z,995.59
2016-10-06T07:13:09.434Z,995.66
2016-10-06T07:14:19.424Z,995.69
2016-10-06T07:15:29.698Z,995.66
2016-10-06T07:16:39.366Z,995.66
2016-10-06T07:17:49.355Z,995.63
2016-10-06T07:18:59.629Z,995.66
2016-10-06T07:20:09.305Z,995.68
2016-10-06T07:21:19.287Z,995.7
2016-10-06T07:22:29.799Z,995.67
2016-10-06T07:23:40.099Z,995.7
2016-10-06T07:24:49.763Z,995.7
2016-10-06T07:25:59.738Z,995.74
2016-10-06T07:27:10.040Z,995.67
2016-10-06T07:28:20.374Z,995.66
2016-10-06T07:29:30.669Z,995.64
2016-10-06T07:30:40.951Z,995.64
2016-10-06T07:31:50.932Z,995.67
2016-10-06T07:33:01.278Z,995.69
2016-10-06T07:34:10.946Z,995.66
2016-10-06T07:35:20.621Z,995.66
2016-10-06T07:36:30.920Z,995.65
2016-10-06T07:37:40.921Z,995.66
2016-10-06T07:38:51.208Z,995.65
2016-10-06T07:40:01.490Z,995.59
2016-10-06T07:41:11.480Z,995.62
2016-10-06T07:42:21.793Z,995.61
2016-10-06T07:43:31.770Z,995.61
2016-10-06T07:44:41.747Z,995.62
2016-10-06T07:45:52.037Z,995.67
2016-10-06T07:47:01.399Z,995.61
2016-10-06T07:48:11.373Z,995.66
2016-10-06T07:49:21.352Z,995.66
2016-10-06T07:50:31.325Z,995.62
2016-10-06T07:51:41.306Z,995.63
2016-10-06T07:52:51.618Z,995.71
2016-10-06T07:54:01.910Z,995.7
2016-10-06T07:55:12.212Z,995.72
2016-10-06T07:56:22.195Z,995.67
2016-10-06T07:57:32.170Z,995.7
2016-10-06T07:58:42.464Z,995.75
2016-10-06T07:59:52.748Z,995.75
2016-10-06T08:01:02.740Z,995.75
2016-10-06T08:02:13.012Z,995.72
2016-10-06T08:03:22.981Z,995.72
2016-10-06T08:04:33.264Z,995.76
2016-10-06T08:05:43.245Z,995.74
2016-10-06T08:06:53.224Z,995.75
2016-10-06T08:08:03.194Z,995.73
2016-10-06T08:09:13.187Z,995.77
2016-10-06T08:10:23.473Z,995.76
2016-10-06T08:11:33.825Z,995.87
2016-10-06T08:12:43.812Z,995.89
2016-10-06T08:13:53.492Z,995.82
2016-10-06T08:15:03.794Z,995.87
2016-10-06T08:16:14.081Z,995.85
2016-10-06T08:17:24.373Z,995.79
2016-10-06T08:18:34.685Z,995.8
2016-10-06T08:19:44.988Z,995.77
2016-10-06T08:20:55.284Z,995.86
2016-10-06T08:22:04.972Z,995.8
2016-10-06T08:23:14.997Z,995.82
2016-10-06T08:24:25.275Z,995.83
2016-10-06T08:25:35.265Z,995.82
2016-10-06T08:26:45.612Z,995.79
2016-10-06T08:27:55.901Z,995.84
2016-10-06T08:29:05.571Z,995.85
2016-10-06T08:30:15.858Z,995.88
2016-10-06T08:31:25.845Z,995.92
2016-10-06T08:32:35.838Z,995.9
2016-10-06T08:33:46.112Z,995.89
2016-10-06T08:34:56.396Z,995.9
2016-10-06T08:36:06.698Z,995.9
2016-10-06T08:37:16.683Z,995.88
2016-10-06T08:38:26.654Z,995.87
2016-10-06T08:39:36.346Z,995.85
2016-10-06T08:40:46.648Z,995.89
2016-10-06T08:41:56.621Z,995.91
2016-10-06T08:43:06.592Z,995.93
2016-10-06T08:44:16.572Z,995.92
2016-10-06T08:45:26.555Z,995.92
2016-10-06T08:46:36.538Z,996.01
2016-10-06T08:47:46.522Z,995.91
2016-10-06T08:48:56.190Z,995.88
2016-10-06T08:50:06.487Z,995.88
2016-10-06T08:51:16.489Z,995.96
2016-10-06T08:52:26.800Z,995.94
2016-10-06T08:53:37.093Z,995.89
2016-10-06T08:54:47.078Z,995.95
2016-10-06T08:55:57.370Z,995.89
2016-10-06T08:57:07.361Z,995.89
2016-10-06T08:58:17.353Z,995.93
2016-10-06T08:59:27.645Z,995.9
2016-10-06T09:00:37.939Z,995.84
2016-10-06T09:01:47.923Z,995.92
2016-10-06T09:02:57.896Z,995.92
2016-10-06T09:04:08.198Z,995.93
2016-10-06T09:05:18.185Z,996
2016-10-06T09:06:28.173Z,995.92
2016-10-06T09:07:38.453Z,995.98
2016-10-06T09:08:48.414Z,996.01
2016-10-06T09:09:58.710Z,995.99
2016-10-06T09:11:09.002Z,996.02
2016-10-06T09:12:18.980Z,995.97
2016-10-06T09:13:29.259Z,996.03
2016-10-06T09:14:39.567Z,995.97
2016-10-06T09:15:49.880Z,995.95
2016-10-06T09:17:00.166Z,995.98
2016-10-06T09:18:10.462Z,995.98
2016-10-06T09:19:20.441Z,995.95
2016-10-06T09:20:30.129Z,995.97
2016-10-06T09:21:39.803Z,995.99
2016-10-06T09:22:49.504Z,996.05
2016-10-06T09:23:59.801Z,996.02
2016-10-06T09:25:09.792Z,996
2016-10-06T09:26:20.094Z,996.01
2016-10-06T09:27:30.392Z,996.01
2016-10-06T09:28:40.383Z,996.04
2016-10-06T09:29:50.679Z,996.05
2016-10-06T09:31:00.661Z,995.98
2016-10-06T09:32:10.342Z,995.96
2016-10-06T09:33:20.029Z,995.99
2016-10-06T09:34:30.321Z,995.95
2016-10-06T09:35:40.622Z,996.01
2016-10-06T09:36:50.910Z,995.98
2016-10-06T09:38:00.908Z,996
2016-10-06T09:39:11.203Z,995.95
2016-10-06T09:40:21.496Z,996
2016-10-06T09:41:31.800Z,996.02
2016-10-06T09:42:42.107Z,996.01
2016-10-06T09:43:52.094Z,996.01
2016-10-06T09:45:02.383Z,995.99
2016-10-06T09:46:12.688Z,995.98
2016-10-06T09:47:22.985Z,996.02
2016-10-06T09:48:32.951Z,995.99
2016-10-06T09:49:42.948Z,996.05
2016-10-06T09:50:53.461Z,996.02
2016-10-06T09:52:03.748Z,996.05
2016-10-06T09:53:14.018Z,995.98
2016-10-06T09:54:24.008Z,996.08
2016-10-06T09:55:33.993Z,996.02
2016-10-06T09:56:44.309Z,996.05
2016-10-06T09:57:54.300Z,996.04
2016-10-06T09:59:04.597Z,996.03
2016-10-06T10:00:14.888Z,996.03
2016-10-06T10:01:25.186Z,996
2016-10-06T10:02:35.483Z,996.03
2016-10-06T10:03:45.450Z,996.04
2016-10-06T10:04:55.752Z,996.07
2016-10-06T10:06:05.438Z,996.01
2016-10-06T10:07:15.724Z,996.08
2016-10-06T10:08:25.761Z,996.11
2016-10-06T10:09:35.752Z,996.05
2016-10-06T10:10:46.047Z,996.12
2016-10-06T10:11:56.332Z,996.1
2016-10-06T10:13:06.629Z,996.1
2016-10-06T10:14:16.915Z,996.07
2016-10-06T10:15:26.891Z,996.1
2016-10-06T10:16:36.888Z,996.07
2016-10-06T10:17:46.866Z,996.1
2016-10-06T10:18:56.856Z,996.07
2016-10-06T10:20:06.839Z,996.08
2016-10-06T10:21:17.149Z,996.08
2016-10-06T10:22:27.432Z,996.1
2016-10-06T10:23:37.725Z,996.14
2016-10-06T10:24:47.711Z,996.17
2016-10-06T10:25:57.377Z,996.14
2016-10-06T10:27:07.679Z,996.21
2016-10-06T10:28:18.007Z,996.21
2016-10-06T10:29:28.378Z,996.19
2016-10-06T10:30:38.675Z,996.21
2016-10-06T10:31:48.955Z,996.22
2016-10-06T10:32:58.022Z,996.14
2016-10-06T10:34:08.013Z,996.18
2016-10-06T10:35:18.004Z,996.16
2016-10-06T10:36:28.019Z,996.22
2016-10-06T10:37:38.331Z,996.16
2016-10-06T10:38:48.611Z,996.2
2016-10-06T10:39:58.913Z,996.2
2016-10-06T10:41:08.904Z,996.13
2016-10-06T10:42:19.205Z,996.14
2016-10-06T10:43:29.210Z,996.12
2016-10-06T10:44:38.875Z,996.16
2016-10-06T10:45:48.561Z,996.11
2016-10-06T10:46:58.843Z,996.11
2016-10-06T10:48:08.929Z,996.15
2016-10-06T10:49:18.910Z,996.12
2016-10-06T10:50:28.892Z,996.11
2016-10-06T10:51:38.873Z,996.09
2016-10-06T10:52:49.175Z,996.05
2016-10-06T10:53:59.486Z,996.08
2016-10-06T10:55:09.779Z,996.08
2016-10-06T10:56:20.082Z,996.08
2016-10-06T10:57:29.742Z,996.06
2016-10-06T10:58:40.074Z,996.1
2016-10-06T10:59:49.762Z,996.09
2016-10-06T11:00:59.747Z,996.07
2016-10-06T11:02:10.041Z,996.11
2016-10-06T11:03:20.032Z,996.07
2016-10-06T11:04:30.031Z,996.07
2016-10-06T11:05:40.008Z,996.06
2016-10-06T11:06:50.007Z,996.02
2016-10-06T11:08:00.307Z,996.02
2016-10-06T11:09:10.297Z,996.05
2016-10-06T11:10:20.522Z,996.08
2016-10-06T11:11:30.811Z,996.04
2016-10-06T11:12:41.033Z,996.07
2016-10-06T11:13:50.724Z,996.15
2016-10-06T11:15:00.725Z,996.09
2016-10-06T11:16:10.414Z,996.06
2016-10-06T11:17:20.714Z,996.05
2016-10-06T11:18:30.690Z,996.06
2016-10-06T11:19:40.681Z,996.08
2016-10-06T11:20:50.655Z,996.08
2016-10-06T11:22:00.945Z,996.07
2016-10-06T11:23:10.933Z,996.06
2016-10-06T11:24:21.225Z,996.06
2016-10-06T11:25:30.895Z,996.08
2016-10-06T11:26:41.195Z,996.06
2016-10-06T11:27:51.169Z,996.01
2016-10-06T11:29:01.162Z,996.03
2016-10-06T11:30:11.146Z,996.04
2016-10-06T11:31:21.113Z,996.08
2016-10-06T11:32:31.409Z,996.04
2016-10-06T11:33:41.392Z,996.11
2016-10-06T11:34:51.367Z,996.06
2016-10-06T11:36:01.349Z,996.05
2016-10-06T11:37:11.652Z,996.08
2016-10-06T11:38:21.979Z,996.06
2016-10-06T11:39:31.955Z,996.06
2016-10-06T11:40:42.256Z,996.08
2016-10-06T11:41:52.232Z,996.11
2016-10-06T11:43:02.536Z,996.06
2016-10-06T11:44:12.527Z,996.09
2016-10-06T11:45:22.210Z,996.08
2016-10-06T11:46:31.891Z,996.09
2016-10-06T11:47:42.197Z,996.08
2016-10-06T11:48:52.489Z,996.12
2016-10-06T11:50:02.775Z,996.07
2016-10-06T11:51:12.752Z,996.04
2016-10-06T11:52:22.730Z,996.05
2016-10-06T11:53:33.036Z,996.03
2016-10-06T11:54:43.332Z,996.07
2016-10-06T11:55:53.310Z,996.08
2016-10-06T11:57:03.283Z,996.07
2016-10-06T11:58:13.268Z,996.06
2016-10-06T11:59:22.947Z,996.08
2016-10-06T12:00:33.238Z,996.03
2016-10-06T12:01:43.533Z,996.03
2016-10-06T12:02:53.833Z,996.09
2016-10-06T12:04:04.112Z,996.1
2016-10-06T12:05:14.087Z,996.1
2016-10-06T12:06:24.378Z,996.09
2016-10-06T12:07:34.370Z,996.17
2016-10-06T12:08:44.676Z,996.12
2016-10-06T12:09:54.959Z,996.07
2016-10-06T12:11:04.940Z,996.11
2016-10-06T12:12:14.932Z,996.06
2016-10-06T12:13:25.223Z,996.09
2016-10-06T12:14:35.520Z,996.08
2016-10-06T12:15:45.797Z,996.07
2016-10-06T12:16:56.224Z,996.06
2016-10-06T12:18:05.612Z,996.04
2016-10-06T12:19:15.599Z,996.03
2016-10-06T12:20:25.885Z,996.1
2016-10-06T12:21:35.568Z,996.13
2016-10-06T12:22:45.868Z,996.1
2016-10-06T12:23:55.867Z,996.12
2016-10-06T12:25:05.938Z,996.1
2016-10-06T12:26:16.215Z,996.11
2016-10-06T12:27:26.215Z,996.1
2016-10-06T12:28:36.511Z,996.14
2016-10-06T12:29:46.187Z,996.14
2016-10-06T12:30:56.181Z,996.19
2016-10-06T12:32:06.182Z,996.15
2016-10-06T12:33:16.485Z,996.18
2016-10-06T12:34:26.467Z,996.17
2016-10-06T12:35:36.774Z,996.14
2016-10-06T12:36:47.084Z,996.19
2016-10-06T12:37:57.071Z,996.19
2016-10-06T12:39:07.374Z,996.2
2016-10-06T12:40:17.377Z,996.16
2016-10-06T12:41:27.358Z,996.18
2016-10-06T12:42:37.645Z,996.18
2016-10-06T12:43:47.934Z,996.21
2016-10-06T12:44:58.250Z,996.16
2016-10-06T12:46:08.549Z,996.16
2016-10-06T12:47:18.843Z,996.14
2016-10-06T12:48:29.137Z,996.23
2016-10-06T12:49:39.145Z,996.21
2016-10-06T12:50:49.427Z,996.17
2016-10-06T12:51:59.732Z,996.17
2016-10-06T12:53:09.705Z,996.18
2016-10-06T12:54:19.991Z,996.14
2016-10-06T12:55:29.674Z,996.13
2016-10-06T12:56:39.975Z,996.15
2016-10-06T12:57:49.958Z,996.11
2016-10-06T12:58:59.948Z,996.12
2016-10-06T13:00:10.237Z,996.14
2016-10-06T13:01:20.227Z,996.15
2016-10-06T13:02:30.524Z,996.1
2016-10-06T13:03:40.825Z,996.2
2016-10-06T13:04:51.107Z,996.15
2016-10-06T13:06:01.398Z,996.18
2016-10-06T13:07:11.685Z,996.15
2016-10-06T13:08:21.365Z,996.12
2016-10-06T13:09:31.666Z,996.2
2016-10-06T13:10:41.971Z,996.19
2016-10-06T13:11:51.987Z,996.16
2016-10-06T13:13:01.949Z,996.16
2016-10-06T13:14:11.626Z,996.22
2016-10-06T13:15:21.917Z,996.2
2016-10-06T13:16:32.219Z,996.26
2016-10-06T13:17:42.852Z,996.25
2016-10-06T13:18:53.152Z,996.26
2016-10-06T13:20:03.446Z,996.23
2016-10-06T13:21:13.146Z,996.29
2016-10-06T13:22:23.458Z,996.26
2016-10-06T13:23:33.777Z,996.24
2016-10-06T13:24:43.792Z,996.23
2016-10-06T13:25:54.157Z,996.27
2016-10-06T13:27:03.901Z,996.23
2016-10-06T13:28:13.877Z,996.24
2016-10-06T13:29:23.561Z,996.25
2016-10-06T13:30:33.596Z,996.25
2016-10-06T13:31:43.923Z,996.29
2016-10-06T13:32:53.652Z,996.29
2016-10-06T13:34:03.680Z,996.32
2016-10-06T13:35:13.995Z,996.28
2016-10-06T13:36:23.989Z,996.29
2016-10-06T13:37:33.826Z,996.27
2016-10-06T13:38:44.214Z,996.26
2016-10-06T13:39:54.531Z,996.25
2016-10-06T13:41:04.538Z,996.21
2016-10-06T13:42:14.226Z,996.25
2016-10-06T13:43:24.575Z,996.26
2016-10-06T13:44:34.876Z,996.25
2016-10-06T13:45:46.337Z,996.25
2016-10-06T13:46:56.944Z,996.25
2016-10-06T13:48:07.817Z,996.3
2016-10-06T13:49:18.214Z,996.27
2016-10-06T13:50:28.443Z,996.3
2016-10-06T13:51:38.582Z,996.24
2016-10-06T13:52:48.922Z,996.21
2016-10-06T13:53:59.229Z,996.25
2016-10-06T13:55:09.213Z,996.24
2016-10-06T13:56:19.498Z,996.22
2016-10-06T13:57:29.807Z,996.21
2016-10-06T13:58:40.097Z,996.22
2016-10-06T13:59:50.418Z,996.17
2016-10-06T14:01:00.724Z,996.19
2016-10-06T14:02:10.714Z,996.21
2016-10-06T14:03:21.016Z,996.17
2016-10-06T14:04:31.001Z,996.13
2016-10-06T14:05:41.324Z,996.13
2016-10-06T14:06:51.652Z,996.16
2016-10-06T14:08:01.632Z,996.14
2016-10-06T14:09:11.616Z,996.16
2016-10-06T14:10:21.623Z,996.21
2016-10-06T14:11:31.913Z,996.19
2016-10-06T14:12:41.311Z,996.23
2016-10-06T14:13:51.624Z,996.22
2016-10-06T14:15:01.614Z,996.23
2016-10-06T14:16:11.639Z,996.17
2016-10-06T14:17:21.631Z,996.23
2016-10-06T14:18:31.639Z,996.24
2016-10-06T14:19:41.941Z,996.21
2016-10-06T14:20:51.930Z,996.22
2016-10-06T14:22:01.608Z,996.26
2016-10-06T14:23:11.949Z,996.22
2016-10-06T14:24:21.949Z,996.21
2016-10-06T14:25:31.943Z,996.16
2016-10-06T14:26:42.479Z,996.26
2016-10-06T14:27:52.792Z,996.17
2016-10-06T14:29:03.093Z,996.2
2016-10-06T14:30:12.764Z,996.22
2016-10-06T14:31:23.065Z,996.25
2016-10-06T14:32:33.360Z,996.24
2016-10-06T14:33:43.669Z,996.23
2016-10-06T14:34:53.978Z,996.24
2016-10-06T14:36:03.651Z,996.27
2016-10-06T14:37:13.952Z,996.27
2016-10-06T14:38:24.242Z,996.23
2016-10-06T14:39:33.914Z,996.23
2016-10-06T14:40:44.217Z,996.21
2016-10-06T14:41:54.222Z,996.19
2016-10-06T14:43:04.528Z,996.2
2016-10-06T14:44:14.849Z,996.19
2016-10-06T14:45:25.143Z,996.17
2016-10-06T14:46:34.833Z,996.15
2016-10-06T14:47:44.815Z,996.19
2016-10-06T14:48:55.108Z,996.19
2016-10-06T14:50:05.419Z,996.17
2016-10-06T14:51:15.965Z,996.18
2016-10-06T14:52:25.952Z,996.14
2016-10-06T14:53:35.953Z,996.17
2016-10-06T14:54:45.944Z,996.15
2016-10-06T14:55:56.281Z,996.13
2016-10-06T14:57:06.583Z,996.13
2016-10-06T14:58:16.584Z,996.16
2016-10-06T14:59:26.888Z,996.16
2016-10-06T15:00:36.888Z,996.22
2016-10-06T15:01:46.573Z,996.21
2016-10-06T15:02:56.884Z,996.24
2016-10-06T15:04:06.881Z,996.18
2016-10-06T15:05:16.877Z,996.2
2016-10-06T15:06:27.196Z,996.26
2016-10-06T15:07:37.510Z,996.29
2016-10-06T15:08:47.510Z,996.3
2016-10-06T15:09:57.192Z,996.32